Greenway, AR

2:42 PM CDT on August 21, 2014 (GMT -0500)
Arkansas International | Change Station
CLOSE
Current Station
Airport
Location: Blytheville,
Elevation: 256 ft
Nearby Weather Stations

Elev 256 ft 35.96 °N, 89.94 °W | Updated 2 days ago

Clear
Clear
90 °F
Feels Like 96 °F
N
11
Wind Variable Wind from SW
Gusts mph

Today
High -- | Low -- °F
--% Chance of Precip.
Yesterday
High -- | Low -- °F
Precip. -- in
6:23 AM 7:43 PM
Waning Crescent, 12% visible
Pressure 29.90 in
Visibility 10.0 miles
Clouds Clear
Heat Index 96 °F
Dew Point 72 °F
Humidity 56%
Rainfall 0.00 in
Snow Depth Not available.
UV 5 out of 12
Pollen 10.80 out of 12
Air Quality Not available.
Flu Activity Not available.
METAR KBYH 191455Z 21007KT 10SM SKC 26/22 A2990

More Conditions Fewer Conditions

Pressure 29.90 in
Visibility 10.0 miles
Clouds Clear
Heat Index 96 °F
Dew Point 72 °F
Humidity 56%
Rainfall 0.00 in
Snow Depth Not available.
UV 5 out of 12
Pollen 10.80 out of 12
Air Quality Not available.
Flu Activity Not available.
METAR KBYH 191455Z 21007KT 10SM SKC 26/22 A2990

More Conditions Fewer Conditions

10-Day Weather Forecast

Almanac

Astronomy

Aug. 21, 2014 Rise Set
Actual Time 6:23 AM CDT 7:43 PM CDT
Civil Twilight 5:56 AM CDT 8:10 PM CDT
Nautical Twilight 5:24 AM CDT 8:42 PM CDT
Astronomical Twilight 4:50 AM CDT 9:16 PM CDT
Moon 2:56 AM CDT 5:10 PM CDT
Length of Visible Light 14h 13m
Length of Day
13h 20m
Tomorrow will be 2m 6s shorter.
Waning Crescent, 12% of the Moon is Illuminated
Today
Waning Crescent
Aug 25
New
Sep 2
First Quarter
Sep 8
Full
Sep 15
Last Quarter

Today's Extremes

State Highs State Lows

Community

WunderPhotos

Upload Photos

1,746,010 photos uploaded!

WunderBlogs® & News

Nearby

Snow Depth

Station Depth Elevation
No new snow has been reported.

Earthquake Activity

City Distance Mag. Time & Date
No recent earthquake activity has been reported nearby.
Minimum magnitude displayed is 2.5.

Coastal Water Temperatures

Place Temperature
No Stations Reporting

Nearby Weather Stations